sensor_id;sensor_type;location;lat;lon;timestamp;P1;durP1;ratioP1;P2;durP2;ratioP2
10174;SDS011;18221;38.704;0.152;2023-05-24T00:12:29;27.70;;;12.83;;
10174;SDS011;18221;38.704;0.152;2023-05-24T00:14:59;18.67;;;12.50;;
10174;SDS011;18221;38.704;0.152;2023-05-24T00:17:27;24.53;;;12.47;;
10174;SDS011;18221;38.704;0.152;2023-05-24T00:19:55;27.00;;;13.43;;
10174;SDS011;18221;38.704;0.152;2023-05-24T00:22:25;19.77;;;12.67;;
10174;SDS011;18221;38.704;0.152;2023-05-24T00:24:53;24.00;;;13.67;;
10174;SDS011;18221;38.704;0.152;2023-05-24T00:27:21;25.37;;;13.80;;
10174;SDS011;18221;38.704;0.152;2023-05-24T00:29:49;23.97;;;13.60;;
10174;SDS011;18221;38.704;0.152;2023-05-24T00:32:19;25.43;;;13.40;;
10174;SDS011;18221;38.704;0.152;2023-05-24T00:34:47;28.50;;;13.97;;
10174;SDS011;18221;38.704;0.152;2023-05-24T00:37:15;27.80;;;14.13;;
10174;SDS011;18221;38.704;0.152;2023-05-24T00:39:43;26.57;;;13.63;;
10174;SDS011;18221;38.704;0.152;2023-05-24T00:42:11;19.70;;;13.30;;
10174;SDS011;18221;38.704;0.152;2023-05-24T00:44:39;19.90;;;14.07;;
10174;SDS011;18221;38.704;0.152;2023-05-24T00:47:07;27.60;;;15.20;;
10174;SDS011;18221;38.704;0.152;2023-05-24T00:49:37;24.17;;;14.43;;
10174;SDS011;18221;38.704;0.152;2023-05-24T00:52:05;24.20;;;13.03;;
10174;SDS011;18221;38.704;0.152;2023-05-24T00:54:34;60.57;;;16.80;;
10174;SDS011;18221;38.704;0.152;2023-05-24T00:57:04;30.13;;;16.30;;
10174;SDS011;18221;38.704;0.152;2023-05-24T00:59:33;23.77;;;14.93;;
10174;SDS011;18221;38.704;0.152;2023-05-24T01:02:01;28.53;;;16.03;;
10174;SDS011;18221;38.704;0.152;2023-05-24T01:04:29;27.80;;;16.33;;
10174;SDS011;18221;38.704;0.152;2023-05-24T01:07:02;25.27;;;16.87;;
10174;SDS011;18221;38.704;0.152;2023-05-24T01:09:46;28.57;;;17.43;;
10174;SDS011;18221;38.704;0.152;2023-05-24T01:12:29;26.43;;;17.77;;
10174;SDS011;18221;38.704;0.152;2023-05-24T01:15:18;26.00;;;18.30;;
10174;SDS011;18221;38.704;0.152;2023-05-24T01:17:56;22.77;;;16.77;;
10174;SDS011;18221;38.704;0.152;2023-05-24T01:20:33;29.33;;;17.17;;
10174;SDS011;18221;38.704;0.152;2023-05-24T01:23:15;24.43;;;15.73;;
10174;SDS011;18221;38.704;0.152;2023-05-24T01:26:03;26.10;;;16.47;;
10174;SDS011;18221;38.704;0.152;2023-05-24T01:29:04;25.97;;;15.63;;
10174;SDS011;18221;38.704;0.152;2023-05-24T01:31:33;26.87;;;15.50;;
10174;SDS011;18221;38.704;0.152;2023-05-24T01:34:03;26.17;;;15.40;;
10174;SDS011;18221;38.704;0.152;2023-05-24T01:36:31;26.60;;;15.87;;
10174;SDS011;18221;38.704;0.152;2023-05-24T01:39:00;22.03;;;15.03;;
10174;SDS011;18221;38.704;0.152;2023-05-24T01:41:31;28.10;;;15.80;;
10174;SDS011;18221;38.704;0.152;2023-05-24T01:44:12;23.07;;;15.17;;
10174;SDS011;18221;38.704;0.152;2023-05-24T01:46:52;23.53;;;15.03;;
10174;SDS011;18221;38.704;0.152;2023-05-24T01:49:33;30.80;;;16.77;;
10174;SDS011;18221;38.704;0.152;2023-05-24T01:52:11;19.73;;;15.93;;
10174;SDS011;18221;38.704;0.152;2023-05-24T01:54:44;25.10;;;16.00;;
10174;SDS011;18221;38.704;0.152;2023-05-24T01:57:18;30.40;;;16.03;;
10174;SDS011;18221;38.704;0.152;2023-05-24T01:59:50;26.47;;;16.53;;
10174;SDS011;18221;38.704;0.152;2023-05-24T02:02:20;25.20;;;16.33;;
10174;SDS011;18221;38.704;0.152;2023-05-24T02:04:48;25.87;;;16.37;;
10174;SDS011;18221;38.704;0.152;2023-05-24T02:07:16;27.43;;;16.57;;
10174;SDS011;18221;38.704;0.152;2023-05-24T02:09:44;26.07;;;16.87;;
10174;SDS011;18221;38.704;0.152;2023-05-24T02:12:12;28.43;;;17.90;;
10174;SDS011;18221;38.704;0.152;2023-05-24T02:14:40;30.17;;;18.80;;
10174;SDS011;18221;38.704;0.152;2023-05-24T02:17:10;30.77;;;19.30;;
10174;SDS011;18221;38.704;0.152;2023-05-24T02:19:38;30.77;;;18.47;;
10174;SDS011;18221;38.704;0.152;2023-05-24T02:22:06;28.40;;;18.47;;
10174;SDS011;18221;38.704;0.152;2023-05-24T02:24:34;33.97;;;19.37;;
10174;SDS011;18221;38.704;0.152;2023-05-24T02:27:04;29.50;;;19.43;;
10174;SDS011;18221;38.704;0.152;2023-05-24T02:29:32;31.33;;;20.37;;
10174;SDS011;18221;38.704;0.152;2023-05-24T02:32:01;33.40;;;19.53;;
10174;SDS011;18221;38.704;0.152;2023-05-24T02:34:32;30.37;;;19.77;;
10174;SDS011;18221;38.704;0.152;2023-05-24T02:37:00;29.57;;;18.57;;
10174;SDS011;18221;38.704;0.152;2023-05-24T02:39:29;30.63;;;19.00;;
10174;SDS011;18221;38.704;0.152;2023-05-24T02:41:57;28.27;;;19.03;;
10174;SDS011;18221;38.704;0.152;2023-05-24T02:44:25;31.20;;;19.17;;
10174;SDS011;18221;38.704;0.152;2023-05-24T02:46:52;32.67;;;20.47;;
10174;SDS011;18221;38.704;0.152;2023-05-24T02:49:20;31.93;;;20.33;;
10174;SDS011;18221;38.704;0.152;2023-05-24T02:51:50;30.20;;;19.87;;
10174;SDS011;18221;38.704;0.152;2023-05-24T02:54:18;28.27;;;20.60;;
10174;SDS011;18221;38.704;0.152;2023-05-24T02:56:46;33.43;;;19.37;;
10174;SDS011;18221;38.704;0.152;2023-05-24T02:59:14;33.43;;;21.00;;
10174;SDS011;18221;38.704;0.152;2023-05-24T03:01:43;38.27;;;22.23;;
10174;SDS011;18221;38.704;0.152;2023-05-24T03:04:11;29.20;;;21.47;;
10174;SDS011;18221;38.704;0.152;2023-05-24T03:06:39;41.27;;;21.33;;
10174;SDS011;18221;38.704;0.152;2023-05-24T03:09:08;34.07;;;21.10;;
10174;SDS011;18221;38.704;0.152;2023-05-24T03:11:37;29.57;;;20.97;;
10174;SDS011;18221;38.704;0.152;2023-05-24T03:14:05;31.50;;;21.23;;
10174;SDS011;18221;38.704;0.152;2023-05-24T03:16:38;36.47;;;21.80;;
10174;SDS011;18221;38.704;0.152;2023-05-24T03:19:06;29.90;;;20.57;;
10174;SDS011;18221;38.704;0.152;2023-05-24T03:21:34;30.23;;;19.77;;
10174;SDS011;18221;38.704;0.152;2023-05-24T03:24:02;35.53;;;21.73;;
10174;SDS011;18221;38.704;0.152;2023-05-24T03:26:32;34.00;;;20.67;;
10174;SDS011;18221;38.704;0.152;2023-05-24T03:29:00;26.97;;;19.97;;
10174;SDS011;18221;38.704;0.152;2023-05-24T03:31:28;36.87;;;21.73;;
10174;SDS011;18221;38.704;0.152;2023-05-24T03:33:56;33.60;;;21.97;;
10174;SDS011;18221;38.704;0.152;2023-05-24T03:36:24;37.93;;;21.73;;
10174;SDS011;18221;38.704;0.152;2023-05-24T03:38:53;31.87;;;21.77;;
10174;SDS011;18221;38.704;0.152;2023-05-24T03:41:22;32.20;;;20.87;;
10174;SDS011;18221;38.704;0.152;2023-05-24T03:43:52;34.97;;;21.77;;
10174;SDS011;18221;38.704;0.152;2023-05-24T03:46:20;33.67;;;21.93;;
10174;SDS011;18221;38.704;0.152;2023-05-24T03:48:47;33.07;;;21.07;;
10174;SDS011;18221;38.704;0.152;2023-05-24T03:51:15;34.37;;;21.97;;
10174;SDS011;18221;38.704;0.152;2023-05-24T03:53:44;33.27;;;21.33;;
10174;SDS011;18221;38.704;0.152;2023-05-24T03:56:12;36.00;;;22.47;;
10174;SDS011;18221;38.704;0.152;2023-05-24T03:58:40;33.30;;;22.20;;
10174;SDS011;18221;38.704;0.152;2023-05-24T04:01:09;35.60;;;21.47;;
10174;SDS011;18221;38.704;0.152;2023-05-24T04:03:37;36.83;;;23.23;;
10174;SDS011;18221;38.704;0.152;2023-05-24T04:06:06;39.57;;;22.57;;
10174;SDS011;18221;38.704;0.152;2023-05-24T04:08:34;37.37;;;22.93;;
10174;SDS011;18221;38.704;0.152;2023-05-24T04:11:04;32.87;;;23.10;;
10174;SDS011;18221;38.704;0.152;2023-05-24T04:13:32;32.97;;;22.63;;
10174;SDS011;18221;38.704;0.152;2023-05-24T04:16:01;36.27;;;21.37;;
10174;SDS011;18221;38.704;0.152;2023-05-24T04:18:30;39.87;;;23.27;;
10174;SDS011;18221;38.704;0.152;2023-05-24T04:20:58;28.67;;;20.90;;
10174;SDS011;18221;38.704;0.152;2023-05-24T04:23:26;33.30;;;22.20;;
10174;SDS011;18221;38.704;0.152;2023-05-24T04:25:54;32.47;;;21.93;;
10174;SDS011;18221;38.704;0.152;2023-05-24T04:28:23;30.33;;;20.53;;
10174;SDS011;18221;38.704;0.152;2023-05-24T04:30:51;37.00;;;20.17;;
10174;SDS011;18221;38.704;0.152;2023-05-24T04:33:21;29.03;;;20.73;;
10174;SDS011;18221;38.704;0.152;2023-05-24T04:35:51;33.80;;;21.50;;
10174;SDS011;18221;38.704;0.152;2023-05-24T04:38:19;32.80;;;21.77;;
10174;SDS011;18221;38.704;0.152;2023-05-24T04:40:48;29.90;;;21.30;;
10174;SDS011;18221;38.704;0.152;2023-05-24T04:43:16;31.93;;;21.30;;
10174;SDS011;18221;38.704;0.152;2023-05-24T04:45:44;34.47;;;20.40;;
10174;SDS011;18221;38.704;0.152;2023-05-24T04:48:12;31.73;;;21.43;;
10174;SDS011;18221;38.704;0.152;2023-05-24T04:50:40;33.20;;;21.10;;
10174;SDS011;18221;38.704;0.152;2023-05-24T04:53:09;31.90;;;20.23;;
10174;SDS011;18221;38.704;0.152;2023-05-24T04:55:37;33.23;;;21.37;;
10174;SDS011;18221;38.704;0.152;2023-05-24T04:58:05;31.23;;;20.43;;
10174;SDS011;18221;38.704;0.152;2023-05-24T05:00:33;36.90;;;21.67;;
10174;SDS011;18221;38.704;0.152;2023-05-24T05:03:01;28.43;;;19.07;;
10174;SDS011;18221;38.704;0.152;2023-05-24T05:05:29;31.57;;;19.53;;
10174;SDS011;18221;38.704;0.152;2023-05-24T05:07:57;32.60;;;18.93;;
10174;SDS011;18221;38.704;0.152;2023-05-24T05:10:27;30.10;;;19.47;;
10174;SDS011;18221;38.704;0.152;2023-05-24T05:12:55;34.83;;;18.97;;
10174;SDS011;18221;38.704;0.152;2023-05-24T05:15:24;37.67;;;19.63;;
10174;SDS011;18221;38.704;0.152;2023-05-24T05:17:51;27.77;;;18.50;;
10174;SDS011;18221;38.704;0.152;2023-05-24T05:20:19;27.07;;;18.13;;
10174;SDS011;18221;38.704;0.152;2023-05-24T05:22:48;26.70;;;17.50;;
10174;SDS011;18221;38.704;0.152;2023-05-24T05:25:16;27.20;;;18.37;;
10174;SDS011;18221;38.704;0.152;2023-05-24T05:27:47;29.73;;;18.80;;
10174;SDS011;18221;38.704;0.152;2023-05-24T05:30:15;25.40;;;17.63;;
10174;SDS011;18221;38.704;0.152;2023-05-24T05:32:43;25.63;;;18.63;;
10174;SDS011;18221;38.704;0.152;2023-05-24T05:35:11;33.03;;;19.13;;
10174;SDS011;18221;38.704;0.152;2023-05-24T05:37:39;31.67;;;18.27;;
10174;SDS011;18221;38.704;0.152;2023-05-24T05:40:08;31.63;;;18.63;;
10174;SDS011;18221;38.704;0.152;2023-05-24T05:42:37;28.53;;;18.77;;
10174;SDS011;18221;38.704;0.152;2023-05-24T05:45:07;32.63;;;18.37;;
10174;SDS011;18221;38.704;0.152;2023-05-24T05:47:35;27.73;;;19.33;;
10174;SDS011;18221;38.704;0.152;2023-05-24T05:50:05;31.30;;;19.50;;
10174;SDS011;18221;38.704;0.152;2023-05-24T05:52:33;39.83;;;19.97;;
10174;SDS011;18221;38.704;0.152;2023-05-24T05:55:01;30.60;;;18.70;;
10174;SDS011;18221;38.704;0.152;2023-05-24T05:57:30;32.00;;;18.73;;
10174;SDS011;18221;38.704;0.152;2023-05-24T05:59:58;30.07;;;17.70;;
10174;SDS011;18221;38.704;0.152;2023-05-24T06:02:27;31.30;;;18.37;;
10174;SDS011;18221;38.704;0.152;2023-05-24T06:04:55;24.03;;;15.93;;
10174;SDS011;18221;38.704;0.152;2023-05-24T06:07:23;26.33;;;16.40;;
10174;SDS011;18221;38.704;0.152;2023-05-24T06:09:51;27.83;;;16.40;;
10174;SDS011;18221;38.704;0.152;2023-05-24T06:12:19;22.73;;;15.30;;
10174;SDS011;18221;38.704;0.152;2023-05-24T06:14:47;23.60;;;14.07;;
10174;SDS011;18221;38.704;0.152;2023-05-24T06:17:16;28.40;;;14.97;;
10174;SDS011;18221;38.704;0.152;2023-05-24T06:19:50;33.47;;;14.33;;
10174;SDS011;18221;38.704;0.152;2023-05-24T06:22:18;24.17;;;14.00;;
10174;SDS011;18221;38.704;0.152;2023-05-24T06:24:47;21.23;;;14.37;;
10174;SDS011;18221;38.704;0.152;2023-05-24T06:27:15;33.47;;;14.67;;
10174;SDS011;18221;38.704;0.152;2023-05-24T06:29:43;27.47;;;15.10;;
10174;SDS011;18221;38.704;0.152;2023-05-24T06:32:11;24.20;;;14.90;;
10174;SDS011;18221;38.704;0.152;2023-05-24T06:34:39;26.77;;;15.73;;
10174;SDS011;18221;38.704;0.152;2023-05-24T06:37:08;22.90;;;14.83;;
10174;SDS011;18221;38.704;0.152;2023-05-24T06:39:39;29.03;;;15.17;;
10174;SDS011;18221;38.704;0.152;2023-05-24T06:42:07;21.73;;;14.60;;
10174;SDS011;18221;38.704;0.152;2023-05-24T06:44:35;25.70;;;14.53;;
10174;SDS011;18221;38.704;0.152;2023-05-24T06:47:03;24.83;;;14.57;;
10174;SDS011;18221;38.704;0.152;2023-05-24T06:49:31;25.10;;;14.40;;
10174;SDS011;18221;38.704;0.152;2023-05-24T06:51:59;23.27;;;14.27;;
10174;SDS011;18221;38.704;0.152;2023-05-24T06:54:29;21.13;;;13.87;;
10174;SDS011;18221;38.704;0.152;2023-05-24T06:56:57;19.57;;;13.30;;
10174;SDS011;18221;38.704;0.152;2023-05-24T06:59:25;21.50;;;13.50;;
10174;SDS011;18221;38.704;0.152;2023-05-24T07:01:53;23.40;;;15.07;;
10174;SDS011;18221;38.704;0.152;2023-05-24T07:04:21;20.97;;;14.73;;
10174;SDS011;18221;38.704;0.152;2023-05-24T07:06:49;23.63;;;15.07;;
10174;SDS011;18221;38.704;0.152;2023-05-24T07:09:18;24.00;;;16.17;;
10174;SDS011;18221;38.704;0.152;2023-05-24T07:11:48;27.57;;;16.33;;
10174;SDS011;18221;38.704;0.152;2023-05-24T07:14:16;28.57;;;15.23;;
10174;SDS011;18221;38.704;0.152;2023-05-24T07:16:44;25.17;;;16.10;;
10174;SDS011;18221;38.704;0.152;2023-05-24T07:19:12;23.20;;;15.40;;
10174;SDS011;18221;38.704;0.152;2023-05-24T07:21:41;23.47;;;15.87;;
10174;SDS011;18221;38.704;0.152;2023-05-24T07:24:09;24.20;;;15.73;;
10174;SDS011;18221;38.704;0.152;2023-05-24T07:26:37;22.53;;;16.23;;
10174;SDS011;18221;38.704;0.152;2023-05-24T07:29:07;27.90;;;16.83;;
10174;SDS011;18221;38.704;0.152;2023-05-24T07:31:35;31.07;;;17.10;;
10174;SDS011;18221;38.704;0.152;2023-05-24T07:34:03;32.13;;;18.53;;
10174;SDS011;18221;38.704;0.152;2023-05-24T07:36:31;30.50;;;19.07;;
10174;SDS011;18221;38.704;0.152;2023-05-24T07:38:59;30.93;;;19.17;;
10174;SDS011;18221;38.704;0.152;2023-05-24T07:41:30;27.27;;;18.23;;
10174;SDS011;18221;38.704;0.152;2023-05-24T07:43:58;24.73;;;17.87;;
10174;SDS011;18221;38.704;0.152;2023-05-24T07:46:28;26.57;;;17.87;;
10174;SDS011;18221;38.704;0.152;2023-05-24T07:48:56;28.00;;;19.27;;
10174;SDS011;18221;38.704;0.152;2023-05-24T07:51:25;31.70;;;20.60;;
10174;SDS011;18221;38.704;0.152;2023-05-24T07:53:53;35.50;;;21.57;;
10174;SDS011;18221;38.704;0.152;2023-05-24T07:56:21;32.50;;;22.47;;
10174;SDS011;18221;38.704;0.152;2023-05-24T07:58:49;35.43;;;23.03;;
10174;SDS011;18221;38.704;0.152;2023-05-24T08:01:23;32.60;;;21.40;;
10174;SDS011;18221;38.704;0.152;2023-05-24T08:03:52;32.37;;;21.83;;
10174;SDS011;18221;38.704;0.152;2023-05-24T08:06:20;36.53;;;23.33;;
10174;SDS011;18221;38.704;0.152;2023-05-24T08:08:48;33.57;;;23.33;;
10174;SDS011;18221;38.704;0.152;2023-05-24T08:11:16;36.60;;;21.87;;
10174;SDS011;18221;38.704;0.152;2023-05-24T08:13:44;38.83;;;23.37;;
10174;SDS011;18221;38.704;0.152;2023-05-24T08:16:12;35.13;;;23.43;;
10174;SDS011;18221;38.704;0.152;2023-05-24T08:18:40;35.77;;;21.67;;
10174;SDS011;18221;38.704;0.152;2023-05-24T08:21:10;39.37;;;23.47;;
10174;SDS011;18221;38.704;0.152;2023-05-24T08:23:38;41.03;;;23.17;;
10174;SDS011;18221;38.704;0.152;2023-05-24T08:26:06;36.10;;;23.43;;
10174;SDS011;18221;38.704;0.152;2023-05-24T08:28:34;33.37;;;22.67;;
10174;SDS011;18221;38.704;0.152;2023-05-24T08:31:02;38.93;;;22.63;;
10174;SDS011;18221;38.704;0.152;2023-05-24T08:33:31;33.17;;;22.67;;
10174;SDS011;18221;38.704;0.152;2023-05-24T08:35:59;35.60;;;23.73;;
10174;SDS011;18221;38.704;0.152;2023-05-24T08:38:29;36.80;;;23.77;;
10174;SDS011;18221;38.704;0.152;2023-05-24T08:40:57;35.80;;;24.83;;
10174;SDS011;18221;38.704;0.152;2023-05-24T08:43:25;37.97;;;24.87;;
10174;SDS011;18221;38.704;0.152;2023-05-24T08:45:56;35.20;;;24.87;;
10174;SDS011;18221;38.704;0.152;2023-05-24T08:48:26;36.77;;;24.40;;
10174;SDS011;18221;38.704;0.152;2023-05-24T08:50:55;37.17;;;23.80;;
10174;SDS011;18221;38.704;0.152;2023-05-24T08:53:24;33.40;;;24.30;;
10174;SDS011;18221;38.704;0.152;2023-05-24T08:55:55;37.13;;;24.87;;
10174;SDS011;18221;38.704;0.152;2023-05-24T08:58:23;32.90;;;24.60;;
10174;SDS011;18221;38.704;0.152;2023-05-24T09:00:51;35.37;;;24.47;;
10174;SDS011;18221;38.704;0.152;2023-05-24T09:03:19;38.00;;;25.37;;
10174;SDS011;18221;38.704;0.152;2023-05-24T09:05:49;36.17;;;25.50;;
10174;SDS011;18221;38.704;0.152;2023-05-24T09:08:18;38.13;;;26.13;;
10174;SDS011;18221;38.704;0.152;2023-05-24T09:10:47;35.07;;;25.60;;
10174;SDS011;18221;38.704;0.152;2023-05-24T09:13:17;36.10;;;25.30;;
10174;SDS011;18221;38.704;0.152;2023-05-24T09:15:48;33.40;;;24.80;;
10174;SDS011;18221;38.704;0.152;2023-05-24T09:18:16;35.87;;;25.40;;
10174;SDS011;18221;38.704;0.152;2023-05-24T09:20:45;36.93;;;25.10;;
10174;SDS011;18221;38.704;0.152;2023-05-24T09:23:13;42.33;;;27.47;;
10174;SDS011;18221;38.704;0.152;2023-05-24T09:25:42;39.70;;;27.40;;
10174;SDS011;18221;38.704;0.152;2023-05-24T09:28:12;46.10;;;26.40;;
10174;SDS011;18221;38.704;0.152;2023-05-24T09:30:43;37.20;;;27.13;;
10174;SDS011;18221;38.704;0.152;2023-05-24T09:33:23;40.60;;;26.57;;
10174;SDS011;18221;38.704;0.152;2023-05-24T09:35:57;41.50;;;27.03;;
10174;SDS011;18221;38.704;0.152;2023-05-24T09:38:26;40.23;;;26.63;;
10174;SDS011;18221;38.704;0.152;2023-05-24T09:40:58;41.37;;;28.40;;
10174;SDS011;18221;38.704;0.152;2023-05-24T09:43:28;40.87;;;27.93;;
10174;SDS011;18221;38.704;0.152;2023-05-24T09:46:01;43.83;;;29.10;;
10174;SDS011;18221;38.704;0.152;2023-05-24T09:48:30;42.83;;;29.57;;
10174;SDS011;18221;38.704;0.152;2023-05-24T09:50:58;41.57;;;29.13;;
10174;SDS011;18221;38.704;0.152;2023-05-24T09:53:30;44.33;;;30.37;;
10174;SDS011;18221;38.704;0.152;2023-05-24T09:55:59;49.47;;;31.47;;
10174;SDS011;18221;38.704;0.152;2023-05-24T09:58:31;42.13;;;31.03;;
10174;SDS011;18221;38.704;0.152;2023-05-24T10:01:04;47.27;;;30.77;;
10174;SDS011;18221;38.704;0.152;2023-05-24T10:03:35;48.13;;;32.30;;
10174;SDS011;18221;38.704;0.152;2023-05-24T10:06:03;48.23;;;34.53;;
10174;SDS011;18221;38.704;0.152;2023-05-24T10:08:36;51.77;;;34.37;;
10174;SDS011;18221;38.704;0.152;2023-05-24T10:11:04;50.83;;;34.10;;
10174;SDS011;18221;38.704;0.152;2023-05-24T10:13:32;49.20;;;34.67;;
10174;SDS011;18221;38.704;0.152;2023-05-24T10:16:04;52.27;;;34.93;;
10174;SDS011;18221;38.704;0.152;2023-05-24T10:18:32;51.67;;;34.30;;
10174;SDS011;18221;38.704;0.152;2023-05-24T10:21:01;54.20;;;35.33;;
10174;SDS011;18221;38.704;0.152;2023-05-24T10:23:35;50.60;;;34.77;;
10174;SDS011;18221;38.704;0.152;2023-05-24T10:26:05;58.47;;;37.23;;
10174;SDS011;18221;38.704;0.152;2023-05-24T10:28:37;53.00;;;36.53;;
10174;SDS011;18221;38.704;0.152;2023-05-24T10:31:13;59.43;;;36.33;;
10174;SDS011;18221;38.704;0.152;2023-05-24T10:33:48;56.77;;;36.77;;
10174;SDS011;18221;38.704;0.152;2023-05-24T10:36:17;55.93;;;36.90;;
10174;SDS011;18221;38.704;0.152;2023-05-24T10:46:33;51.73;;;36.07;;
10174;SDS011;18221;38.704;0.152;2023-05-24T10:49:02;52.17;;;35.17;;
10174;SDS011;18221;38.704;0.152;2023-05-24T11:07:08;47.90;;;33.33;;
10174;SDS011;18221;38.704;0.152;2023-05-24T11:09:37;45.70;;;33.00;;
10174;SDS011;18221;38.704;0.152;2023-05-24T11:12:12;43.57;;;32.43;;
10174;SDS011;18221;38.704;0.152;2023-05-24T11:15:56;49.13;;;35.90;;
10174;SDS011;18221;38.704;0.152;2023-05-24T11:18:24;54.60;;;36.00;;
10174;SDS011;18221;38.704;0.152;2023-05-24T11:20:52;54.40;;;36.10;;
10174;SDS011;18221;38.704;0.152;2023-05-24T11:23:21;51.80;;;37.47;;
10174;SDS011;18221;38.704;0.152;2023-05-24T11:25:51;57.40;;;38.00;;
10174;SDS011;18221;38.704;0.152;2023-05-24T11:28:19;55.20;;;37.07;;
10174;SDS011;18221;38.704;0.152;2023-05-24T11:30:47;57.43;;;36.13;;
10174;SDS011;18221;38.704;0.152;2023-05-24T11:33:17;51.83;;;35.27;;
10174;SDS011;18221;38.704;0.152;2023-05-24T11:35:49;52.27;;;34.87;;
10174;SDS011;18221;38.704;0.152;2023-05-24T11:38:18;46.90;;;33.27;;
10174;SDS011;18221;38.704;0.152;2023-05-24T11:40:47;59.93;;;35.67;;
10174;SDS011;18221;38.704;0.152;2023-05-24T11:43:17;51.87;;;34.53;;
10174;SDS011;18221;38.704;0.152;2023-05-24T11:45:47;51.30;;;36.07;;
10174;SDS011;18221;38.704;0.152;2023-05-24T11:48:17;54.27;;;34.70;;
10174;SDS011;18221;38.704;0.152;2023-05-24T11:50:46;54.03;;;35.20;;
10174;SDS011;18221;38.704;0.152;2023-05-24T11:53:15;58.50;;;36.27;;
10174;SDS011;18221;38.704;0.152;2023-05-24T11:55:45;56.90;;;36.00;;
10174;SDS011;18221;38.704;0.152;2023-05-24T11:58:17;56.73;;;34.73;;
10174;SDS011;18221;38.704;0.152;2023-05-24T12:00:49;48.27;;;32.23;;
10174;SDS011;18221;38.704;0.152;2023-05-24T12:03:19;60.47;;;34.57;;
10174;SDS011;18221;38.704;0.152;2023-05-24T12:05:47;53.20;;;34.63;;
10174;SDS011;18221;38.704;0.152;2023-05-24T12:08:17;53.10;;;33.83;;
10174;SDS011;18221;38.704;0.152;2023-05-24T12:10:47;89.17;;;38.40;;
10174;SDS011;18221;38.704;0.152;2023-05-24T12:13:19;71.00;;;35.60;;
10174;SDS011;18221;38.704;0.152;2023-05-24T12:15:50;61.17;;;34.53;;
10174;SDS011;18221;38.704;0.152;2023-05-24T12:18:22;68.77;;;37.90;;
10174;SDS011;18221;38.704;0.152;2023-05-24T12:20:51;55.67;;;35.23;;
10174;SDS011;18221;38.704;0.152;2023-05-24T12:23:21;63.83;;;37.30;;
10174;SDS011;18221;38.704;0.152;2023-05-24T12:25:56;70.63;;;39.33;;
10174;SDS011;18221;38.704;0.152;2023-05-24T12:28:25;66.30;;;41.37;;
10174;SDS011;18221;38.704;0.152;2023-05-24T12:30:53;70.03;;;42.63;;
10174;SDS011;18221;38.704;0.152;2023-05-24T12:33:24;77.33;;;41.50;;
10174;SDS011;18221;38.704;0.152;2023-05-24T12:35:52;74.70;;;44.00;;
10174;SDS011;18221;38.704;0.152;2023-05-24T12:38:22;95.27;;;46.00;;
10174;SDS011;18221;38.704;0.152;2023-05-24T12:40:51;84.10;;;44.47;;
10174;SDS011;18221;38.704;0.152;2023-05-24T12:43:20;92.87;;;44.77;;
10174;SDS011;18221;38.704;0.152;2023-05-24T12:45:48;105.97;;;43.23;;
10174;SDS011;18221;38.704;0.152;2023-05-24T12:48:16;84.70;;;44.70;;
10174;SDS011;18221;38.704;0.152;2023-05-24T12:50:46;43.63;;;26.87;;
10174;SDS011;18221;38.704;0.152;2023-05-24T12:53:15;27.90;;;21.90;;
10174;SDS011;18221;38.704;0.152;2023-05-24T12:55:44;35.07;;;23.87;;
10174;SDS011;18221;38.704;0.152;2023-05-24T12:58:12;40.43;;;25.90;;
10174;SDS011;18221;38.704;0.152;2023-05-24T13:00:41;45.83;;;28.67;;
10174;SDS011;18221;38.704;0.152;2023-05-24T13:03:14;50.93;;;29.13;;
10174;SDS011;18221;38.704;0.152;2023-05-24T13:05:42;47.63;;;29.03;;
10174;SDS011;18221;38.704;0.152;2023-05-24T13:08:12;57.07;;;30.00;;
10174;SDS011;18221;38.704;0.152;2023-05-24T13:10:40;50.37;;;30.37;;
10174;SDS011;18221;38.704;0.152;2023-05-24T13:13:08;48.23;;;30.10;;
10174;SDS011;18221;38.704;0.152;2023-05-24T13:15:36;47.70;;;30.23;;
10174;SDS011;18221;38.704;0.152;2023-05-24T13:18:06;54.00;;;31.13;;
10174;SDS011;18221;38.704;0.152;2023-05-24T13:20:34;51.60;;;31.77;;
10174;SDS011;18221;38.704;0.152;2023-05-24T13:23:02;50.40;;;32.50;;
10174;SDS011;18221;38.704;0.152;2023-05-24T13:25:31;51.67;;;32.50;;
10174;SDS011;18221;38.704;0.152;2023-05-24T13:27:59;48.03;;;32.50;;
10174;SDS011;18221;38.704;0.152;2023-05-24T13:30:27;48.23;;;31.77;;
10174;SDS011;18221;38.704;0.152;2023-05-24T13:32:55;39.33;;;27.50;;
10174;SDS011;18221;38.704;0.152;2023-05-24T13:35:26;41.90;;;27.07;;
10174;SDS011;18221;38.704;0.152;2023-05-24T13:37:55;41.43;;;26.77;;
10174;SDS011;18221;38.704;0.152;2023-05-24T13:40:23;35.63;;;23.10;;
10174;SDS011;18221;38.704;0.152;2023-05-24T13:42:53;30.97;;;21.43;;
10174;SDS011;18221;38.704;0.152;2023-05-24T13:45:22;28.63;;;21.93;;
10174;SDS011;18221;38.704;0.152;2023-05-24T13:47:51;27.63;;;20.53;;
10174;SDS011;18221;38.704;0.152;2023-05-24T13:50:22;27.40;;;20.10;;
10174;SDS011;18221;38.704;0.152;2023-05-24T13:52:51;32.07;;;23.83;;
10174;SDS011;18221;38.704;0.152;2023-05-24T13:55:19;34.50;;;24.50;;
10174;SDS011;18221;38.704;0.152;2023-05-24T13:57:47;36.70;;;27.60;;
10174;SDS011;18221;38.704;0.152;2023-05-24T14:00:17;37.90;;;27.30;;
10174;SDS011;18221;38.704;0.152;2023-05-24T14:02:46;37.33;;;28.63;;
10174;SDS011;18221;38.704;0.152;2023-05-24T14:05:15;33.07;;;26.37;;
10174;SDS011;18221;38.704;0.152;2023-05-24T14:07:43;31.37;;;23.67;;
10174;SDS011;18221;38.704;0.152;2023-05-24T14:10:11;26.53;;;21.67;;
10174;SDS011;18221;38.704;0.152;2023-05-24T14:12:40;31.97;;;22.27;;
10174;SDS011;18221;38.704;0.152;2023-05-24T14:15:08;27.87;;;20.40;;
10174;SDS011;18221;38.704;0.152;2023-05-24T14:17:39;28.90;;;19.80;;
10174;SDS011;18221;38.704;0.152;2023-05-24T14:20:08;21.17;;;17.93;;
10174;SDS011;18221;38.704;0.152;2023-05-24T14:22:36;24.87;;;18.17;;
10174;SDS011;18221;38.704;0.152;2023-05-24T14:25:05;21.53;;;17.27;;
10174;SDS011;18221;38.704;0.152;2023-05-24T14:27:34;18.17;;;14.67;;
10174;SDS011;18221;38.704;0.152;2023-05-24T14:30:03;15.73;;;13.73;;
10174;SDS011;18221;38.704;0.152;2023-05-24T14:32:32;15.93;;;13.30;;
10174;SDS011;18221;38.704;0.152;2023-05-24T14:35:02;14.10;;;12.60;;
10174;SDS011;18221;38.704;0.152;2023-05-24T14:37:31;14.50;;;11.60;;
10174;SDS011;18221;38.704;0.152;2023-05-24T14:39:58;11.90;;;10.50;;
10174;SDS011;18221;38.704;0.152;2023-05-24T14:42:26;12.73;;;10.33;;
10174;SDS011;18221;38.704;0.152;2023-05-24T14:44:56;11.83;;;10.63;;
10174;SDS011;18221;38.704;0.152;2023-05-24T14:47:24;11.33;;;10.17;;
10174;SDS011;18221;38.704;0.152;2023-05-24T14:49:52;12.07;;;9.17;;
10174;SDS011;18221;38.704;0.152;2023-05-24T14:52:21;10.63;;;8.50;;
10174;SDS011;18221;38.704;0.152;2023-05-24T14:54:49;10.20;;;8.93;;
10174;SDS011;18221;38.704;0.152;2023-05-24T14:57:17;10.43;;;8.30;;
10174;SDS011;18221;38.704;0.152;2023-05-24T14:59:46;10.67;;;8.63;;
10174;SDS011;18221;38.704;0.152;2023-05-24T15:02:14;9.43;;;8.50;;
10174;SDS011;18221;38.704;0.152;2023-05-24T15:04:42;10.27;;;8.53;;
10174;SDS011;18221;38.704;0.152;2023-05-24T15:07:10;10.33;;;8.40;;
10174;SDS011;18221;38.704;0.152;2023-05-24T15:09:39;10.50;;;9.03;;